Time;durP1;ratioP1;P1;durP2;ratioP2;P2;SDS_P1;SDS_P2;PMS_P1;PMS_P2;Temp;Humidity;BMP_temperature;BMP_pressure;BME280_temperature;BME280_humidity;BME280_pressure;Samples;Min_cycle;Max_cycle;Signal;HPM_P1;HPM_P2
2023/03/30 00:01:39;;;;;;;8.30;3.20;;;;;;;2.41;58.55;96789.36;109282;1267;22629;-82
2023/03/30 00:04:10;;;;;;;8.50;4.90;;;;;;;2.42;58.62;96783.67;109164;1274;22978;-82
2023/03/30 00:06:41;;;;;;;8.50;4.10;;;;;;;2.42;58.61;96788.63;109227;1266;60428;-82
2023/03/30 00:09:11;;;;;;;7.10;3.40;;;;;;;2.38;58.66;96772.56;109230;1274;22579;-82
2023/03/30 00:11:44;;;;;;;8.90;4.70;;;;;;;2.35;59.11;96771.75;109255;1274;22810;-82
2023/03/30 00:14:16;;;;;;;10.30;4.90;;;;;;;2.31;59.18;96774.38;109274;1268;22579;-82
2023/03/30 00:16:45;;;;;;;7.40;3.80;;;;;;;2.29;59.25;96769.36;109161;1272;109836;-82
2023/03/30 00:19:19;;;;;;;6.80;3.90;;;;;;;2.29;59.26;96767.63;109251;1267;22556;-82
2023/03/30 00:21:49;;;;;;;7.50;4.20;;;;;;;2.31;58.96;96770.30;109257;1272;22570;-82
2023/03/30 00:24:22;;;;;;;10.20;4.60;;;;;;;2.32;59.10;96766.28;109258;1269;25323;-82
2023/03/30 00:26:55;;;;;;;7.10;3.50;;;;;;;2.32;59.08;96763.59;109213;1266;45311;-82
2023/03/30 00:29:26;;;;;;;7.80;4.20;;;;;;;2.32;59.05;96757.75;109188;1274;22489;-82
2023/03/30 00:31:57;;;;;;;9.20;4.20;;;;;;;2.30;59.35;96757.27;109263;1269;25418;-82
2023/03/30 00:34:26;;;;;;;10.70;5.70;;;;;;;2.28;59.54;96758.50;109223;1259;22945;-82
2023/03/30 00:36:55;;;;;;;11.50;4.60;;;;;;;2.28;59.52;96752.86;107663;1265;2113292;-82
2023/03/30 00:39:28;;;;;;;7.70;3.90;;;;;;;2.31;59.44;96747.42;109282;1270;22535;-82
2023/03/30 00:42:01;;;;;;;11.80;5.30;;;;;;;2.30;59.92;96752.59;109209;1273;22627;-82
2023/03/30 00:45:16;;;;;;;11.30;6.10;;;;;;;2.30;59.89;96751.80;109187;1269;22492;-83
2023/03/30 00:48:01;;;;;;;9.00;4.80;;;;;;;2.30;59.90;96744.91;109197;1268;59236;-82
2023/03/30 00:50:40;;;;;;;10.20;4.90;;;;;;;2.30;59.94;96735.12;109242;1274;22493;-82
2023/03/30 00:53:10;;;;;;;;;;;;;;;2.32;60.06;96720.41;109222;1274;22565;-83
2023/03/30 00:55:47;;;;;;;9.40;4.40;;;;;;;2.33;60.08;96723.16;109224;1269;24884;-82
2023/03/30 00:58:21;;;;;;;10.50;4.30;;;;;;;2.34;60.05;96723.34;109209;1266;67387;-82
2023/03/30 01:00:59;;;;;;;7.30;4.80;;;;;;;2.35;60.24;96708.77;109235;1274;22554;-83
2023/03/30 01:03:32;;;;;;;7.20;4.00;;;;;;;2.34;60.32;96719.84;109159;1274;22519;-82
2023/03/30 01:06:06;;;;;;;7.30;4.80;;;;;;;2.35;60.32;96711.81;109266;1272;22587;-82
2023/03/30 01:08:36;;;;;;;10.90;5.20;;;;;;;2.38;60.17;96717.94;109169;1269;92607;-82
2023/03/30 01:11:09;;;;;;;7.80;4.80;;;;;;;2.39;60.30;96721.64;109225;1273;22708;-82
2023/03/30 01:13:44;;;;;;;8.20;5.00;;;;;;;2.41;60.27;96714.58;109250;1273;22596;-82
2023/03/30 01:16:26;;;;;;;7.40;4.20;;;;;;;2.40;60.23;96715.07;109231;1274;23600;-83
2023/03/30 01:19:05;;;;;;;8.20;3.90;;;;;;;2.41;60.39;96704.80;109125;1274;70476;-82
2023/03/30 01:22:11;;;;;;;8.00;4.30;;;;;;;2.41;60.47;96700.81;109204;1273;23861;-82
2023/03/30 01:25:19;;;;;;;7.60;4.50;;;;;;;2.41;60.57;96703.23;109220;1269;22537;-82
2023/03/30 01:28:20;;;;;;;9.60;5.30;;;;;;;2.43;60.60;96696.23;109130;1273;89289;-82
2023/03/30 01:31:13;;;;;;;9.20;4.80;;;;;;;2.41;60.70;96692.71;109175;1274;25333;-83
2023/03/30 01:34:00;;;;;;;6.90;3.80;;;;;;;2.40;60.89;96697.52;109207;1274;22556;-82
2023/03/30 01:37:10;;;;;;;7.70;4.60;;;;;;;2.41;60.97;96693.85;109260;1273;24260;-83
2023/03/30 01:39:55;;;;;;;8.80;4.20;;;;;;;2.43;60.92;96692.73;109269;1269;23609;-82
2023/03/30 01:42:36;;;;;;;11.00;5.20;;;;;;;2.44;61.30;96692.88;109261;1270;22834;-82
2023/03/30 01:45:14;;;;;;;6.00;3.60;;;;;;;2.46;61.11;96696.42;109261;1273;22486;-83
2023/03/30 01:47:52;;;;;;;8.70;4.50;;;;;;;2.49;61.12;96693.55;109158;1267;81632;-83
2023/03/30 01:50:27;;;;;;;9.60;4.40;;;;;;;2.49;61.25;96691.94;109237;1269;22579;-82
2023/03/30 01:52:59;;;;;;;7.40;4.50;;;;;;;2.51;61.43;96685.23;109247;1273;22572;-83
2023/03/30 01:55:40;;;;;;;8.60;4.10;;;;;;;2.50;61.56;96692.65;109220;1266;22545;-83
2023/03/30 01:58:17;;;;;;;10.90;4.40;;;;;;;2.51;61.61;96693.23;109220;1266;42630;-83
2023/03/30 02:01:21;;;;;;;9.40;4.90;;;;;;;2.52;61.61;96693.38;109183;1267;22561;-84
2023/03/30 02:03:54;;;;;;;8.30;4.70;;;;;;;2.55;61.38;96698.42;109161;1267;22660;-83
2023/03/30 02:06:37;;;;;;;7.80;4.00;;;;;;;2.58;61.49;96699.50;109235;1274;22540;-82
2023/03/30 02:09:14;;;;;;;6.50;4.10;;;;;;;2.59;61.47;96704.60;109096;1273;112184;-83
2023/03/30 02:11:54;;;;;;;8.50;4.40;;;;;;;2.60;61.58;96701.64;109220;1266;22980;-82
2023/03/30 02:14:30;;;;;;;9.10;3.90;;;;;;;2.60;61.65;96694.89;109208;1274;22713;-82
2023/03/30 02:17:05;;;;;;;7.20;4.10;;;;;;;2.61;61.79;96690.30;109274;1265;42604;-82
2023/03/30 02:19:33;;;;;;;6.50;4.30;;;;;;;2.62;61.92;96689.23;109123;1269;22573;-83
2023/03/30 02:22:05;;;;;;;8.70;4.10;;;;;;;2.63;62.09;96684.84;109261;1266;22552;-82
2023/03/30 02:24:35;;;;;;;6.90;4.10;;;;;;;2.61;62.08;96686.64;109220;1272;22534;-82
2023/03/30 02:27:04;;;;;;;8.10;4.50;;;;;;;2.60;62.17;96692.27;109189;1269;42192;-83
2023/03/30 02:29:43;;;;;;;7.20;3.80;;;;;;;2.63;62.41;96688.51;109259;1269;22537;-82
2023/03/30 02:32:19;;;;;;;9.40;4.50;;;;;;;2.64;62.42;96689.27;109270;1274;22466;-82
2023/03/30 02:35:10;;;;;;;8.70;4.50;;;;;;;2.66;62.32;96686.11;109252;1266;22543;-82
2023/03/30 02:37:57;;;;;;;8.80;4.50;;;;;;;2.67;62.29;96688.23;107671;1268;2089159;-82
2023/03/30 02:40:36;;;;;;;8.00;4.90;;;;;;;2.68;62.29;96697.65;109226;1274;22555;-81
2023/03/30 02:43:29;;;;;;;7.00;4.00;;;;;;;2.71;62.43;96685.68;109296;1266;23632;-82
2023/03/30 02:46:20;;;;;;;9.90;4.00;;;;;;;2.71;62.51;96696.25;109229;1273;22513;-82
2023/03/30 02:48:59;;;;;;;7.80;4.20;;;;;;;2.70;62.61;96683.86;109162;1267;111144;-82
2023/03/30 02:51:41;;;;;;;8.50;3.90;;;;;;;2.70;62.44;96687.33;109238;1272;22689;-82
2023/03/30 02:54:24;;;;;;;5.50;3.60;;;;;;;2.68;62.71;96682.64;109303;1273;22479;-82
2023/03/30 02:57:12;;;;;;;9.30;4.30;;;;;;;2.66;62.90;96682.30;109237;1274;22660;-82
2023/03/30 02:59:51;;;;;;;8.50;4.40;;;;;;;2.65;62.90;96685.11;109258;1274;22591;-81
2023/03/30 03:02:26;;;;;;;8.20;5.40;;;;;;;2.63;63.15;96676.27;109271;1266;22570;-82
2023/03/30 03:04:55;;;;;;;6.20;2.80;;;;;;;2.62;63.28;96676.88;109124;1274;22543;-82
2023/03/30 03:07:32;;;;;;;3.70;3.00;;;;;;;2.62;63.53;96678.17;109158;1273;93783;-82
2023/03/30 03:10:02;;;;;;;7.40;4.00;;;;;;;2.62;63.79;96675.55;109309;1273;22482;-82
2023/03/30 03:12:32;;;;;;;8.00;4.60;;;;;;;2.66;63.79;96674.55;109231;1272;22523;-81
2023/03/30 03:15:11;;;;;;;;;;;;;;;2.67;64.03;96668.27;109227;1269;22520;-82
2023/03/30 03:17:50;;;;;;;;;;;;;;;;;;;;;
2023/03/30 03:20:27;;;;;;;5.20;3.30;;;;;;;2.69;64.35;96663.75;109247;1266;22674;-82
2023/03/30 03:22:55;;;;;;;6.80;3.80;;;;;;;2.73;64.26;96674.46;109251;1269;25949;-81
2023/03/30 03:25:25;;;;;;;5.70;2.70;;;;;;;2.72;64.36;96670.20;109166;1274;24341;-82
2023/03/30 03:27:57;;;;;;;3.90;2.80;;;;;;;2.71;64.48;96673.33;109193;1270;55373;-82
2023/03/30 03:30:27;;;;;;;7.30;3.10;;;;;;;2.70;64.74;96668.64;109182;1273;22485;-82
2023/03/30 03:32:55;;;;;;;5.30;3.00;;;;;;;2.70;64.68;96666.55;109170;1273;23497;-82
2023/03/30 03:35:25;;;;;;;9.50;5.20;;;;;;;2.67;64.88;96665.89;109266;1266;22566;-82
2023/03/30 03:37:57;;;;;;;4.60;2.50;;;;;;;2.62;65.03;96665.68;109143;1274;108124;-82
2023/03/30 03:40:27;;;;;;;6.30;3.90;;;;;;;2.59;65.06;96670.98;109218;1267;22537;-81
2023/03/30 03:42:55;;;;;;;8.60;3.50;;;;;;;2.57;65.39;96670.28;109240;1273;22589;-82
2023/03/30 03:45:31;;;;;;;5.60;3.20;;;;;;;2.58;65.51;96668.66;109188;1270;22472;-83
2023/03/30 03:48:01;;;;;;;4.70;2.50;;;;;;;2.56;65.63;96662.09;107877;1273;1845818;-82
2023/03/30 03:50:30;;;;;;;5.70;3.20;;;;;;;2.54;65.60;96660.67;109255;1270;23813;-81
2023/03/30 03:53:02;;;;;;;7.70;4.20;;;;;;;2.51;65.92;96655.88;109275;1273;24330;-82
2023/03/30 03:55:34;;;;;;;6.70;4.00;;;;;;;2.50;65.91;96652.30;109311;1270;24241;-82
2023/03/30 03:58:05;;;;;;;6.20;2.70;;;;;;;2.50;66.21;96644.34;109251;1274;73720;-82
2023/03/30 04:00:40;;;;;;;5.30;3.20;;;;;;;2.51;66.28;96648.27;109245;1274;22658;-82
2023/03/30 04:03:11;;;;;;;6.00;3.00;;;;;;;2.50;66.58;96651.92;109256;1270;25151;-82
2023/03/30 04:05:42;;;;;;;8.00;4.10;;;;;;;2.48;66.58;96645.39;109258;1266;22531;-82
2023/03/30 04:08:16;;;;;;;5.40;2.80;;;;;;;2.47;66.59;96644.55;107305;1270;2626872;-82
2023/03/30 04:10:51;;;;;;;5.90;4.10;;;;;;;2.49;66.92;96632.23;109294;1273;25261;-82
2023/03/30 04:13:20;;;;;;;6.60;3.90;;;;;;;2.54;66.94;96625.80;109244;1274;24558;-82
2023/03/30 04:15:51;;;;;;;5.90;3.20;;;;;;;2.59;67.00;96629.19;109267;1273;23801;-82
2023/03/30 04:18:22;;;;;;;5.40;3.10;;;;;;;2.63;67.06;96630.73;109183;1272;109552;-82
2023/03/30 04:20:55;;;;;;;5.90;3.20;;;;;;;2.64;66.89;96625.46;109243;1274;23650;-82
2023/03/30 04:23:30;;;;;;;5.80;3.40;;;;;;;2.66;67.02;96624.50;109221;1274;22557;-82
2023/03/30 04:26:01;;;;;;;5.20;3.20;;;;;;;2.66;67.08;96621.73;109206;1266;24193;-82
2023/03/30 04:28:28;;;;;;;;;;;;;;;2.66;67.07;96618.95;107486;1269;2276431;-82
2023/03/30 04:31:05;;;;;;;4.50;3.30;;;;;;;2.62;67.03;96618.34;109268;1266;22544;-82
2023/03/30 04:33:33;;;;;;;6.20;3.50;;;;;;;2.60;67.32;96616.33;109212;1274;22608;-82
2023/03/30 04:36:08;;;;;;;5.30;3.00;;;;;;;2.61;67.44;96619.90;109246;1274;23211;-82
2023/03/30 04:38:36;;;;;;;6.70;3.90;;;;;;;2.64;67.46;96616.66;109179;1269;56341;-82
2023/03/30 04:41:05;;;;;;;5.90;3.70;;;;;;;2.65;67.48;96615.17;109194;1269;22594;-82
2023/03/30 04:43:34;;;;;;;6.60;4.60;;;;;;;2.68;67.48;96613.90;109204;1272;22522;-82
2023/03/30 04:46:02;;;;;;;4.70;3.10;;;;;;;2.71;67.51;96607.05;109213;1273;25409;-82
2023/03/30 04:48:31;;;;;;;8.20;4.10;;;;;;;2.74;67.54;96604.97;109188;1273;103798;-82
2023/03/30 04:51:00;;;;;;;6.00;3.80;;;;;;;2.82;67.55;96608.23;109275;1274;23855;-82
2023/03/30 04:53:29;;;;;;;6.00;3.20;;;;;;;2.88;67.42;96605.52;109230;1273;25419;-82
2023/03/30 04:55:57;;;;;;;6.90;3.50;;;;;;;2.95;67.21;96615.89;109212;1270;22568;-82
2023/03/30 04:58:26;;;;;;;6.50;3.70;;;;;;;3.02;67.07;96614.10;109208;1269;58422;-82
2023/03/30 05:00:57;;;;;;;7.20;4.40;;;;;;;3.09;66.88;96615.70;109246;1274;22492;-81
2023/03/30 05:03:33;;;;;;;8.00;4.30;;;;;;;3.17;66.85;96610.23;109176;1274;25113;-82
2023/03/30 05:06:01;;;;;;;6.80;3.80;;;;;;;3.28;66.62;96612.39;109240;1274;22496;-82
2023/03/30 05:08:33;;;;;;;6.20;3.80;;;;;;;3.33;66.33;96618.61;109221;1271;49137;-82
2023/03/30 05:11:03;;;;;;;4.40;3.10;;;;;;;3.39;66.22;96616.85;109239;1269;24203;-82
2023/03/30 05:13:36;;;;;;;7.10;3.70;;;;;;;3.52;66.18;96613.54;109242;1274;23354;-82
2023/03/30 05:16:09;;;;;;;4.90;3.20;;;;;;;3.91;65.90;96617.73;109214;1274;23120;-82
2023/03/30 05:18:39;;;;;;;6.30;3.90;;;;;;;4.32;65.16;96609.17;107730;1269;2061236;-82
2023/03/30 05:21:08;;;;;;;6.70;4.10;;;;;;;4.74;64.19;96601.64;109255;1274;22657;-82
2023/03/30 05:23:41;;;;;;;6.80;4.10;;;;;;;5.23;63.02;96599.91;109219;1269;23694;-82
2023/03/30 05:26:10;;;;;;;7.10;3.80;;;;;;;5.24;61.40;96604.45;109139;1274;22685;-83
2023/03/30 05:28:41;;;;;;;4.90;3.00;;;;;;;4.95;61.50;96601.72;109217;1274;65436;-83
2023/03/30 05:31:11;;;;;;;5.80;3.00;;;;;;;4.68;61.70;96603.59;109248;1274;22882;-82
2023/03/30 05:33:45;;;;;;;6.20;3.50;;;;;;;4.52;62.12;96601.67;109231;1274;23709;-82
2023/03/30 05:36:19;;;;;;;4.90;2.90;;;;;;;4.36;62.16;96596.92;109187;1270;23268;-82
2023/03/30 05:38:50;;;;;;;6.30;3.60;;;;;;;4.25;62.38;96600.67;109114;1272;111435;-82
2023/03/30 05:41:19;;;;;;;6.50;3.60;;;;;;;4.17;62.51;96596.70;109275;1274;22461;-82
2023/03/30 05:43:54;;;;;;;5.60;3.70;;;;;;;4.11;62.71;96594.94;109238;1274;23549;-82
2023/03/30 05:46:31;;;;;;;6.30;3.60;;;;;;;4.10;63.06;96586.64;109198;1274;23228;-81
2023/03/30 05:49:03;;;;;;;6.70;3.70;;;;;;;4.11;63.00;96586.49;109194;1274;69613;-82
2023/03/30 05:51:42;;;;;;;6.50;3.80;;;;;;;4.14;62.80;96582.55;109197;1274;22468;-82
2023/03/30 05:54:12;;;;;;;6.40;3.60;;;;;;;4.14;62.91;96578.20;109282;1274;22545;-82
2023/03/30 05:56:41;;;;;;;6.40;3.80;;;;;;;4.16;62.88;96572.72;109268;1270;22531;-83
2023/03/30 05:59:14;;;;;;;6.40;3.80;;;;;;;4.22;62.94;96575.27;107858;1274;1822185;-82
2023/03/30 06:01:48;;;;;;;5.50;3.40;;;;;;;4.31;62.83;96572.47;109198;1274;22539;-82
2023/03/30 06:04:17;;;;;;;5.10;3.10;;;;;;;4.34;62.39;96564.91;109227;1270;22729;-82
2023/03/30 06:06:47;;;;;;;5.40;3.20;;;;;;;4.42;62.13;96566.46;109254;1270;22640;-82
2023/03/30 06:09:17;;;;;;;8.30;4.00;;;;;;;4.58;61.97;96556.89;109060;1250;105607;-82
2023/03/30 06:11:45;;;;;;;5.90;4.00;;;;;;;4.77;61.43;96554.52;109235;1274;22481;-82
2023/03/30 06:14:16;;;;;;;6.70;4.00;;;;;;;4.98;61.04;96543.85;109129;1266;22553;-83
2023/03/30 06:16:50;;;;;;;6.60;4.10;;;;;;;5.12;60.67;96539.71;109229;1274;22568;-82
2023/03/30 06:19:23;;;;;;;6.30;4.10;;;;;;;5.11;60.33;96529.30;109166;1268;61036;-82
2023/03/30 06:21:54;;;;;;;6.50;3.90;;;;;;;5.03;60.41;96533.19;109227;1273;22820;-83
2023/03/30 06:24:23;;;;;;;5.70;2.90;;;;;;;4.99;60.32;96528.31;109232;1269;23664;-82
2023/03/30 06:27:02;;;;;;;;;;;;;;;;;;;;;
2023/03/30 06:29:32;;;;;;;;;;;;;;;4.95;60.55;96522.23;105033;1266;5358534;-82
2023/03/30 06:32:06;;;;;;;6.40;3.90;;;;;;;5.00;60.40;96529.39;109248;1274;25447;-83
2023/03/30 06:34:52;;;;;;;7.70;3.90;;;;;;;5.11;60.34;96523.73;109188;1271;23195;-83
2023/03/30 06:37:25;;;;;;;5.70;3.60;;;;;;;5.36;59.82;96527.58;109245;1272;22515;-82
2023/03/30 06:39:55;;;;;;;7.30;4.50;;;;;;;5.55;59.41;96520.59;109207;1274;71144;-82
2023/03/30 06:42:25;;;;;;;6.70;3.80;;;;;;;5.64;58.96;96525.20;109233;1269;22614;-81
2023/03/30 06:45:10;;;;;;;6.10;4.00;;;;;;;5.71;58.66;96519.25;109194;1274;22528;-82
2023/03/30 06:47:46;;;;;;;7.60;4.60;;;;;;;5.88;58.64;96516.32;109199;1266;44719;-83
2023/03/30 06:50:16;;;;;;;7.30;4.50;;;;;;;6.24;58.47;96522.20;109206;1274;24241;-83
2023/03/30 06:52:47;;;;;;;6.90;4.10;;;;;;;6.74;57.78;96516.50;109253;1274;22643;-82
2023/03/30 06:55:16;;;;;;;6.90;4.60;;;;;;;7.02;56.44;96515.54;109268;1274;24131;-83
2023/03/30 06:57:48;;;;;;;6.90;4.30;;;;;;;7.17;56.06;96516.55;109123;1267;105813;-82
2023/03/30 07:00:19;;;;;;;5.90;3.90;;;;;;;7.33;55.58;96514.27;109269;1274;22517;-83
2023/03/30 07:02:47;;;;;;;6.30;4.60;;;;;;;7.26;54.89;96519.73;109178;1272;22692;-82
2023/03/30 07:05:26;;;;;;;;;;;;;;;;;;;;;
2023/03/30 07:07:55;;;;;;;5.40;3.50;;;;;;;6.75;55.81;96526.00;109118;1270;87221;-82
2023/03/30 07:10:26;;;;;;;8.30;4.40;;;;;;;6.58;56.13;96532.43;109239;1274;22472;-82
2023/03/30 07:12:55;;;;;;;6.80;4.20;;;;;;;6.51;56.34;96527.49;109237;1274;22489;-82
2023/03/30 07:15:26;;;;;;;7.30;4.70;;;;;;;6.45;57.13;96517.70;109259;1272;22612;-82
2023/03/30 07:18:05;;;;;;;6.40;4.40;;;;;;;6.42;57.19;96516.59;105099;1267;5391420;-82
2023/03/30 07:20:35;;;;;;;6.00;3.60;;;;;;;6.31;57.35;96511.35;109074;1274;24759;-82
2023/03/30 07:23:04;;;;;;;8.30;4.10;;;;;;;6.19;57.37;96503.95;109245;1274;23107;-82
2023/03/30 07:25:40;;;;;;;9.30;4.80;;;;;;;6.12;57.92;96518.38;109221;1274;22488;-82
2023/03/30 07:28:09;;;;;;;7.00;4.30;;;;;;;6.12;57.91;96520.75;109148;1272;116486;-82
2023/03/30 07:30:43;;;;;;;7.20;3.80;;;;;;;6.24;58.17;96526.00;109168;1275;24909;-82
2023/03/30 07:33:13;;;;;;;7.70;3.90;;;;;;;6.31;57.81;96528.98;109184;1272;23431;-82
2023/03/30 07:35:48;;;;;;;6.60;4.30;;;;;;;6.31;57.95;96530.09;109233;1274;22612;-82
2023/03/30 07:38:25;;;;;;;7.10;4.30;;;;;;;6.39;57.88;96528.95;109124;1268;63267;-82
2023/03/30 07:40:58;;;;;;;8.10;4.40;;;;;;;6.47;58.14;96521.15;109138;1274;22708;-82
2023/03/30 07:43:29;;;;;;;7.20;4.60;;;;;;;6.56;57.88;96520.15;109248;1274;24171;-82
2023/03/30 07:45:58;;;;;;;6.20;4.10;;;;;;;6.60;57.97;96518.95;109183;1274;22539;-82
2023/03/30 07:48:42;;;;;;;5.50;3.80;;;;;;;6.60;58.09;96516.01;109175;1274;63124;-82
2023/03/30 07:51:17;;;;;;;10.90;4.70;;;;;;;6.61;57.83;96514.16;109240;1266;23627;-82
2023/03/30 07:53:48;;;;;;;7.50;4.40;;;;;;;6.59;57.69;96505.94;109293;1266;22524;-82
2023/03/30 07:56:17;;;;;;;9.10;4.30;;;;;;;6.64;57.98;96501.98;109287;1273;23571;-82
2023/03/30 07:58:48;;;;;;;6.90;4.20;;;;;;;6.77;57.83;96500.56;109098;1274;76545;-82
2023/03/30 08:01:17;;;;;;;7.80;4.30;;;;;;;6.84;57.74;96496.64;109033;1275;22651;-82
2023/03/30 08:03:49;;;;;;;8.70;4.80;;;;;;;6.96;57.78;96497.13;109219;1274;24375;-83
2023/03/30 08:06:20;;;;;;;7.10;4.50;;;;;;;7.12;57.63;96497.65;109241;1250;22568;-82
2023/03/30 08:08:51;;;;;;;8.30;3.90;;;;;;;7.24;57.70;96482.88;107677;1269;2106766;-82
2023/03/30 08:11:22;;;;;;;7.60;4.60;;;;;;;7.29;57.08;96489.36;109183;1274;22702;-82
2023/03/30 08:13:56;;;;;;;6.30;3.70;;;;;;;7.21;57.01;96488.35;109257;1272;23017;-83
2023/03/30 08:16:26;;;;;;;9.50;4.10;;;;;;;7.11;57.30;96475.61;109216;1270;25310;-82
2023/03/30 08:18:57;;;;;;;7.00;4.40;;;;;;;7.08;57.53;96479.45;105127;1270;5333070;-82
2023/03/30 08:21:25;;;;;;;6.10;4.10;;;;;;;7.13;57.76;96472.72;109194;1274;22461;-82
2023/03/30 08:23:56;;;;;;;5.80;3.60;;;;;;;7.24;57.28;96472.23;109273;1274;22662;-82
2023/03/30 08:26:28;;;;;;;6.10;4.40;;;;;;;7.23;56.97;96464.85;109159;1274;22486;-82
2023/03/30 08:29:01;;;;;;;7.90;4.10;;;;;;;7.29;57.43;96460.05;109104;1275;106441;-83
2023/03/30 08:31:40;;;;;;;5.80;3.60;;;;;;;7.36;57.46;96461.98;109205;1274;22550;-82
2023/03/30 08:34:09;;;;;;;7.60;5.00;;;;;;;7.40;57.01;96462.23;109248;1274;22705;-83
2023/03/30 08:36:47;;;;;;;5.70;3.50;;;;;;;7.52;57.39;96459.94;109249;1267;22483;-82
2023/03/30 08:39:20;;;;;;;4.40;2.80;;;;;;;7.51;56.75;96465.86;109134;1268;41247;-82
2023/03/30 08:42:20;;;;;;;7.20;4.00;;;;;;;7.38;56.99;96454.65;109221;1274;22543;-82
2023/03/30 08:44:56;;;;;;;6.40;3.50;;;;;;;7.50;57.07;96451.40;109173;1251;22545;-82
2023/03/30 08:47:31;;;;;;;6.90;3.30;;;;;;;7.75;56.73;96449.24;109215;1274;22525;-81
2023/03/30 08:50:07;;;;;;;6.40;3.90;;;;;;;8.10;55.79;96442.78;109218;1272;74120;-82
2023/03/30 08:52:51;;;;;;;8.00;3.60;;;;;;;8.17;55.64;96435.39;109200;1274;22590;-82
2023/03/30 08:55:30;;;;;;;9.20;4.00;;;;;;;8.20;54.76;96442.73;109273;1274;22524;-82
2023/03/30 08:58:09;;;;;;;6.80;3.70;;;;;;;8.16;55.55;96429.58;109128;1268;92495;-82
2023/03/30 09:00:50;;;;;;;5.90;2.90;;;;;;;8.19;55.93;96427.90;109168;1260;24217;-82
2023/03/30 09:03:29;;;;;;;;;;;;;;;8.17;56.27;96435.73;109303;1274;22549;-83
2023/03/30 09:06:04;;;;;;;6.40;3.80;;;;;;;8.17;56.09;96434.49;109255;1274;22465;-83
2023/03/30 09:08:36;;;;;;;6.70;3.30;;;;;;;8.08;56.28;96435.45;109192;1273;71434;-82
2023/03/30 09:11:11;;;;;;;6.20;3.10;;;;;;;8.01;55.82;96424.95;109185;1274;22474;-83
2023/03/30 09:13:45;;;;;;;7.10;3.00;;;;;;;7.89;55.79;96418.21;109224;1271;23935;-83
2023/03/30 09:16:22;;;;;;;5.40;2.60;;;;;;;7.80;56.41;96418.64;109216;1274;25088;-82
2023/03/30 09:18:55;;;;;;;5.30;2.40;;;;;;;7.70;56.45;96431.83;109232;1269;37582;-83
2023/03/30 09:21:30;;;;;;;6.40;3.20;;;;;;;7.68;56.74;96417.38;109230;1274;22536;-82
2023/03/30 09:24:14;;;;;;;6.70;3.80;;;;;;;7.67;56.73;96408.30;109383;1274;22553;-83
2023/03/30 09:26:51;;;;;;;6.60;3.30;;;;;;;7.55;56.94;96408.45;109261;1272;22517;-83
2023/03/30 09:29:27;;;;;;;6.50;3.30;;;;;;;7.49;57.09;96408.09;107774;1272;2124194;-83
2023/03/30 09:32:11;;;;;;;6.30;3.70;;;;;;;7.44;57.42;96416.61;109211;1274;22654;-83
2023/03/30 09:34:57;;;;;;;5.40;3.60;;;;;;;7.42;57.40;96415.92;109270;1274;23927;-83
2023/03/30 09:37:30;;;;;;;6.90;3.50;;;;;;;7.46;57.38;96413.92;109233;1270;22507;-83
2023/03/30 09:40:14;;;;;;;6.70;4.00;;;;;;;7.37;57.05;96406.27;109140;1274;49478;-83
2023/03/30 09:42:57;;;;;;;5.30;3.60;;;;;;;7.26;57.51;96401.58;109118;1274;22532;-82
2023/03/30 09:45:38;;;;;;;6.10;3.70;;;;;;;7.21;58.14;96413.38;109235;1273;22510;-83
2023/03/30 09:48:10;;;;;;;6.50;3.80;;;;;;;7.23;58.02;96412.38;107673;1267;2063491;-83
2023/03/30 09:50:43;;;;;;;7.80;3.90;;;;;;;7.24;57.96;96407.11;109256;1272;22580;-82
2023/03/30 09:53:23;;;;;;;7.30;3.60;;;;;;;7.23;57.75;96396.23;109281;1274;22573;-83
2023/03/30 09:55:59;;;;;;;7.40;4.10;;;;;;;7.23;58.11;96382.58;109236;1274;22573;-82
2023/03/30 09:58:33;;;;;;;5.20;3.20;;;;;;;7.30;58.32;96378.69;109210;1271;84984;-82
2023/03/30 10:01:11;;;;;;;7.00;4.40;;;;;;;7.37;58.28;96377.33;109141;1274;22570;-82
2023/03/30 10:03:46;;;;;;;8.20;4.00;;;;;;;7.40;58.16;96374.16;109182;1272;22532;-83
2023/03/30 10:06:21;;;;;;;6.50;2.90;;;;;;;7.41;58.04;96372.10;109209;1272;22559;-83
2023/03/30 10:08:53;;;;;;;7.40;4.00;;;;;;;7.36;58.21;96386.98;109193;1274;66060;-82
2023/03/30 10:11:37;;;;;;;7.60;4.40;;;;;;;7.39;58.20;96375.16;109256;1274;23170;-82
2023/03/30 10:14:23;;;;;;;7.50;4.20;;;;;;;7.41;58.39;96377.80;109250;1251;22552;-82
2023/03/30 10:16:52;;;;;;;7.70;4.00;;;;;;;7.46;58.32;96376.06;109252;1274;22726;-82
2023/03/30 10:19:25;;;;;;;6.50;3.50;;;;;;;7.48;58.57;96370.68;109165;1273;92187;-83
2023/03/30 10:21:58;;;;;;;5.20;2.90;;;;;;;7.49;58.58;96368.10;109211;1274;23681;-82
2023/03/30 10:24:32;;;;;;;5.50;3.00;;;;;;;7.53;58.58;96373.85;109140;1275;22528;-82
2023/03/30 10:27:12;;;;;;;5.50;3.20;;;;;;;7.66;58.80;96363.98;109217;1274;24208;-82
2023/03/30 10:29:55;;;;;;;;;;;;;;;;;;;;;
2023/03/30 10:32:30;;;;;;;6.70;3.80;;;;;;;7.97;58.63;96349.78;108888;1272;228790;-83
2023/03/30 10:35:08;;;;;;;6.20;2.80;;;;;;;8.07;58.35;96342.73;109299;1265;25443;-82
2023/03/30 10:37:42;;;;;;;6.10;3.10;;;;;;;8.23;58.41;96329.80;109256;1274;22969;-82
2023/03/30 10:40:19;;;;;;;4.30;2.40;;;;;;;8.40;58.45;96318.24;109220;1272;59781;-82
2023/03/30 10:42:52;;;;;;;5.70;2.90;;;;;;;8.54;58.25;96306.94;109242;1274;23710;-82
2023/03/30 10:45:26;;;;;;;4.60;2.50;;;;;;;8.64;57.89;96302.39;109192;1274;22477;-83
2023/03/30 10:48:22;;;;;;;4.90;2.70;;;;;;;8.71;57.77;96300.38;109148;1275;23344;-82
2023/03/30 10:50:58;;;;;;;6.50;2.90;;;;;;;8.73;57.85;96295.79;109233;1274;24210;-82
2023/03/30 10:53:39;;;;;;;4.20;2.70;;;;;;;8.74;57.89;96284.27;109228;1274;22477;-82
2023/03/30 10:56:23;;;;;;;4.20;2.30;;;;;;;8.78;57.97;96278.10;109150;1274;22538;-81
2023/03/30 10:59:13;;;;;;;6.00;3.00;;;;;;;8.86;58.30;96281.05;109196;1263;70705;-82
2023/03/30 11:01:54;;;;;;;5.50;2.70;;;;;;;9.04;58.19;96272.41;109251;1274;22529;-82
2023/03/30 11:04:28;;;;;;;4.30;2.60;;;;;;;9.17;58.17;96277.77;109237;1263;23094;-81
2023/03/30 11:07:01;;;;;;;4.70;2.10;;;;;;;9.24;58.04;96283.99;109220;1274;22480;-82
2023/03/30 11:09:37;;;;;;;4.60;2.40;;;;;;;9.23;57.49;96281.84;109136;1273;51729;-81
2023/03/30 11:12:12;;;;;;;4.30;2.50;;;;;;;9.18;57.67;96274.54;109172;1272;25265;-81
2023/03/30 11:14:50;;;;;;;2.70;1.90;;;;;;;9.10;57.76;96283.21;109229;1274;22561;-82
2023/03/30 11:17:23;;;;;;;2.50;1.70;;;;;;;9.07;58.07;96285.83;109271;1274;22547;-81
2023/03/30 11:19:57;;;;;;;3.00;2.00;;;;;;;9.15;58.16;96278.26;109134;1274;72509;-82
2023/03/30 11:22:36;;;;;;;3.50;2.20;;;;;;;9.29;58.38;96268.41;109361;1267;24874;-82
2023/03/30 11:25:26;;;;;;;3.90;2.30;;;;;;;9.41;58.21;96263.48;109162;1275;22504;-83
2023/03/30 11:28:01;;;;;;;4.60;3.00;;;;;;;9.48;58.45;96253.27;109205;1274;22448;-82
2023/03/30 11:30:34;;;;;;;3.70;2.30;;;;;;;9.56;58.20;96255.62;109162;1271;50874;-83
2023/03/30 11:33:16;;;;;;;4.30;2.40;;;;;;;9.62;58.48;96249.21;109230;1274;25985;-82
2023/03/30 11:35:47;;;;;;;4.90;2.30;;;;;;;9.69;58.42;96264.74;109255;1274;22605;-82
2023/03/30 11:38:20;;;;;;;7.00;3.00;;;;;;;9.72;58.68;96260.02;109153;1274;23811;-82
2023/03/30 11:40:56;;;;;;;5.10;2.60;;;;;;;9.72;58.62;96257.85;109221;1272;22495;-82
2023/03/30 11:43:29;;;;;;;5.20;2.40;;;;;;;9.74;58.63;96269.36;109180;1274;25431;-82
2023/03/30 11:46:07;;;;;;;3.60;2.00;;;;;;;9.80;58.80;96262.40;109212;1275;24201;-83
2023/03/30 11:49:11;;;;;;;3.20;2.30;;;;;;;9.90;59.11;96264.69;109143;1274;49398;-82
2023/03/30 11:51:53;;;;;;;5.00;2.30;;;;;;;10.24;59.30;96257.67;109204;1274;22471;-83
2023/03/30 11:54:55;;;;;;;4.20;2.00;;;;;;;10.65;59.21;96256.69;109228;1274;22462;-83
2023/03/30 11:57:34;;;;;;;4.60;2.00;;;;;;;10.87;58.74;96257.16;109240;1274;22534;-83
2023/03/30 12:00:23;;;;;;;3.70;2.10;;;;;;;10.95;58.23;96257.56;107638;1274;2105806;-83
2023/03/30 12:03:11;;;;;;;3.90;1.80;;;;;;;10.97;57.88;96240.29;109225;1264;22789;-83
2023/03/30 12:06:02;;;;;;;;;;;;;;;;;;;;;
2023/03/30 12:08:48;;;;;;;3.80;2.00;;;;;;;10.91;57.32;96234.17;109159;1267;88317;-83
2023/03/30 12:11:32;;;;;;;4.20;1.90;;;;;;;10.67;57.32;96233.95;109009;1275;22524;-83
2023/03/30 12:14:09;;;;;;;;;;;;;;;10.47;57.84;96218.72;109262;1274;22647;-83
2023/03/30 12:16:56;;;;;;;;;;;;;;;;;;;;;
2023/03/30 12:19:55;;;;;;;3.40;1.80;;;;;;;10.27;59.08;96209.29;105984;1274;4346661;-82
2023/03/30 12:22:35;;;;;;;4.10;2.20;;;;;;;10.34;59.40;96205.59;109216;1267;22558;-83